VIDP/DEL METAR and TAF weather

Enter ICAO airport designator
Station Type Date Time Source
VIDP METAR 2022/11/27 08:00 UTC NOAA

VIDP 270800Z 29004KT 3000 HZ NSC 25/07 Q1012 NOSIG


Station Type Date Time Source
VIDP Decoded METAR 2022/11/27 08:00 UTC NOAA

New Delhi / Palam, India (VIDP) 28-34N 077-07E 233M
Nov 27, 2022 - 03:00 AM EST / 2022.11.27 0800 UTC
Wind: from the WNW (290 degrees) at 5 MPH (4 KT):0
Visibility: 1 mile(s):0
Weather: haze
Temperature: 77 F (25 C)
Dew Point: 44 F (7 C)
Relative Humidity: 31%
Pressure (altimeter): 29.88 in. Hg (1012 hPa)
ob: VIDP 270800Z 29004KT 3000 HZ NSC 25/07 Q1012 NOSIG
cycle: 8

Station Type Date Time Source
VIDP TAF 2022/11/27 06:45 UTC NOAA

VIDP 270500Z 2706/2812 25003KT 2000 FU NSC
BECMG 2708/2710 31005KT 3000 HZ
BECMG 2716/2718 VRB02KT 2000 FU
BECMG 2800/2802 00000KT 0800 MIFG
BECMG 2804/2806 27005KT 1500 FU
BECMG 2807/2809 2500 HZ

Example: see airport list